sensor_id;sensor_type;location;lat;lon;timestamp;P1;durP1;ratioP1;P2;durP2;ratioP2
67675;SDS011;54456;48.436;10.028;2023-02-01T00:01:25;11.10;;;3.80;;
67675;SDS011;54456;48.436;10.028;2023-02-01T00:02:55;10.67;;;3.40;;
67675;SDS011;54456;48.436;10.028;2023-02-01T00:04:25;12.57;;;3.63;;
67675;SDS011;54456;48.436;10.028;2023-02-01T00:05:56;13.65;;;4.20;;
67675;SDS011;54456;48.436;10.028;2023-02-01T00:07:27;11.07;;;3.53;;
67675;SDS011;54456;48.436;10.028;2023-02-01T00:08:57;10.50;;;3.90;;
67675;SDS011;54456;48.436;10.028;2023-02-01T00:10:27;11.47;;;3.33;;
67675;SDS011;54456;48.436;10.028;2023-02-01T00:11:58;14.63;;;3.73;;
67675;SDS011;54456;48.436;10.028;2023-02-01T00:13:32;12.55;;;3.80;;
67675;SDS011;54456;48.436;10.028;2023-02-01T00:15:03;7.00;;;2.35;;
67675;SDS011;54456;48.436;10.028;2023-02-01T00:16:33;11.70;;;4.30;;
67675;SDS011;54456;48.436;10.028;2023-02-01T00:18:03;10.20;;;3.67;;
67675;SDS011;54456;48.436;10.028;2023-02-01T00:19:34;9.23;;;3.20;;
67675;SDS011;54456;48.436;10.028;2023-02-01T00:21:04;8.18;;;3.15;;
67675;SDS011;54456;48.436;10.028;2023-02-01T00:22:35;10.80;;;3.63;;
67675;SDS011;54456;48.436;10.028;2023-02-01T00:24:05;10.33;;;3.73;;
67675;SDS011;54456;48.436;10.028;2023-02-01T00:25:35;10.85;;;3.58;;
67675;SDS011;54456;48.436;10.028;2023-02-01T00:27:05;12.07;;;4.10;;
67675;SDS011;54456;48.436;10.028;2023-02-01T00:28:36;11.68;;;3.83;;
67675;SDS011;54456;48.436;10.028;2023-02-01T04:15:18;12.02;;;4.10;;
67675;SDS011;54456;48.436;10.028;2023-02-01T04:16:48;11.77;;;4.68;;
67675;SDS011;54456;48.436;10.028;2023-02-01T04:18:18;10.40;;;3.87;;
67675;SDS011;54456;48.436;10.028;2023-02-01T04:19:49;13.03;;;4.50;;
67675;SDS011;54456;48.436;10.028;2023-02-01T04:21:19;14.00;;;4.17;;
67675;SDS011;54456;48.436;10.028;2023-02-01T04:22:49;9.27;;;3.03;;
67675;SDS011;54456;48.436;10.028;2023-02-01T04:24:19;11.27;;;4.00;;
67675;SDS011;54456;48.436;10.028;2023-02-01T04:25:49;9.00;;;3.07;;
67675;SDS011;54456;48.436;10.028;2023-02-01T04:27:20;10.73;;;4.05;;
67675;SDS011;54456;48.436;10.028;2023-02-01T04:28:50;11.87;;;3.97;;
67675;SDS011;54456;48.436;10.028;2023-02-01T04:30:22;14.90;;;4.03;;
67675;SDS011;54456;48.436;10.028;2023-02-01T04:31:53;15.32;;;5.10;;
67675;SDS011;54456;48.436;10.028;2023-02-01T04:33:23;10.73;;;4.47;;
67675;SDS011;54456;48.436;10.028;2023-02-01T04:34:54;17.27;;;4.93;;
67675;SDS011;54456;48.436;10.028;2023-02-01T04:36:24;13.17;;;4.63;;
67675;SDS011;54456;48.436;10.028;2023-02-01T04:37:54;11.50;;;3.70;;
67675;SDS011;54456;48.436;10.028;2023-02-01T04:39:24;10.40;;;3.67;;
67675;SDS011;54456;48.436;10.028;2023-02-01T04:40:55;13.73;;;4.67;;
67675;SDS011;54456;48.436;10.028;2023-02-01T04:42:25;12.27;;;4.67;;
67675;SDS011;54456;48.436;10.028;2023-02-01T04:43:55;11.43;;;3.90;;
67675;SDS011;54456;48.436;10.028;2023-02-01T04:45:25;10.67;;;3.83;;
67675;SDS011;54456;48.436;10.028;2023-02-01T04:46:55;12.57;;;4.83;;
67675;SDS011;54456;48.436;10.028;2023-02-01T04:48:26;11.97;;;3.83;;
67675;SDS011;54456;48.436;10.028;2023-02-01T04:49:56;15.50;;;5.27;;
67675;SDS011;54456;48.436;10.028;2023-02-01T04:51:26;12.77;;;3.80;;
67675;SDS011;54456;48.436;10.028;2023-02-01T04:52:56;9.57;;;3.20;;
67675;SDS011;54456;48.436;10.028;2023-02-01T04:54:27;9.67;;;3.30;;
67675;SDS011;54456;48.436;10.028;2023-02-01T04:55:57;13.03;;;4.53;;
67675;SDS011;54456;48.436;10.028;2023-02-01T04:57:27;9.23;;;3.13;;
67675;SDS011;54456;48.436;10.028;2023-02-01T04:58:57;9.90;;;3.50;;
67675;SDS011;54456;48.436;10.028;2023-02-01T05:00:28;13.03;;;4.50;;
67675;SDS011;54456;48.436;10.028;2023-02-01T05:01:58;8.37;;;3.10;;
67675;SDS011;54456;48.436;10.028;2023-02-01T05:03:28;10.47;;;3.70;;
67675;SDS011;54456;48.436;10.028;2023-02-01T05:04:58;16.67;;;5.37;;
67675;SDS011;54456;48.436;10.028;2023-02-01T05:06:28;16.83;;;5.23;;
67675;SDS011;54456;48.436;10.028;2023-02-01T05:07:59;14.47;;;4.93;;
67675;SDS011;54456;48.436;10.028;2023-02-01T05:09:29;15.67;;;5.13;;
67675;SDS011;54456;48.436;10.028;2023-02-01T05:10:59;14.30;;;4.37;;
67675;SDS011;54456;48.436;10.028;2023-02-01T05:12:32;12.85;;;4.30;;
67675;SDS011;54456;48.436;10.028;2023-02-01T05:14:21;14.90;;;4.95;;
67675;SDS011;54456;48.436;10.028;2023-02-01T05:15:51;17.40;;;5.27;;
67675;SDS011;54456;48.436;10.028;2023-02-01T05:17:21;11.80;;;4.27;;
67675;SDS011;54456;48.436;10.028;2023-02-01T05:18:52;12.13;;;4.00;;
67675;SDS011;54456;48.436;10.028;2023-02-01T05:20:22;8.48;;;3.22;;
67675;SDS011;54456;48.436;10.028;2023-02-01T05:21:53;9.65;;;3.90;;
67675;SDS011;54456;48.436;10.028;2023-02-01T05:23:23;10.20;;;3.57;;
67675;SDS011;54456;48.436;10.028;2023-02-01T05:24:53;12.03;;;4.00;;
67675;SDS011;54456;48.436;10.028;2023-02-01T05:26:24;10.53;;;3.63;;
67675;SDS011;54456;48.436;10.028;2023-02-01T05:27:54;13.00;;;4.97;;
67675;SDS011;54456;48.436;10.028;2023-02-01T05:29:24;13.43;;;4.00;;
67675;SDS011;54456;48.436;10.028;2023-02-01T05:30:55;13.30;;;4.00;;
67675;SDS011;54456;48.436;10.028;2023-02-01T05:32:25;13.30;;;4.63;;
67675;SDS011;54456;48.436;10.028;2023-02-01T05:33:55;9.83;;;3.20;;
67675;SDS011;54456;48.436;10.028;2023-02-01T05:35:25;13.47;;;4.00;;
67675;SDS011;54456;48.436;10.028;2023-02-01T05:36:56;11.67;;;4.40;;
67675;SDS011;54456;48.436;10.028;2023-02-01T05:38:26;10.37;;;3.70;;
67675;SDS011;54456;48.436;10.028;2023-02-01T05:39:56;11.60;;;4.03;;
67675;SDS011;54456;48.436;10.028;2023-02-01T05:41:26;14.50;;;4.50;;
67675;SDS011;54456;48.436;10.028;2023-02-01T05:42:56;13.40;;;4.77;;
67675;SDS011;54456;48.436;10.028;2023-02-01T05:44:27;10.27;;;3.57;;
67675;SDS011;54456;48.436;10.028;2023-02-01T05:45:57;16.77;;;5.57;;
67675;SDS011;54456;48.436;10.028;2023-02-01T05:47:27;15.27;;;5.67;;
67675;SDS011;54456;48.436;10.028;2023-02-01T05:48:58;14.30;;;4.83;;
67675;SDS011;54456;48.436;10.028;2023-02-01T05:50:28;5.13;;;2.10;;
67675;SDS011;54456;48.436;10.028;2023-02-01T05:51:58;12.37;;;3.77;;
67675;SDS011;54456;48.436;10.028;2023-02-01T05:53:28;14.53;;;5.83;;
67675;SDS011;54456;48.436;10.028;2023-02-01T05:54:58;13.10;;;4.43;;
67675;SDS011;54456;48.436;10.028;2023-02-01T05:56:29;8.80;;;2.80;;
67675;SDS011;54456;48.436;10.028;2023-02-01T05:57:59;14.03;;;4.63;;
67675;SDS011;54456;48.436;10.028;2023-02-01T05:59:29;13.23;;;4.28;;
67675;SDS011;54456;48.436;10.028;2023-02-01T06:01:00;14.13;;;4.70;;
67675;SDS011;54456;48.436;10.028;2023-02-01T06:02:30;14.05;;;4.40;;
67675;SDS011;54456;48.436;10.028;2023-02-01T06:04:01;13.10;;;4.17;;
67675;SDS011;54456;48.436;10.028;2023-02-01T06:05:31;11.03;;;3.83;;
67675;SDS011;54456;48.436;10.028;2023-02-01T06:07:02;9.67;;;3.37;;
67675;SDS011;54456;48.436;10.028;2023-02-01T06:08:32;14.57;;;5.20;;
67675;SDS011;54456;48.436;10.028;2023-02-01T06:10:02;10.60;;;4.23;;
67675;SDS011;54456;48.436;10.028;2023-02-01T06:11:33;13.68;;;5.03;;
67675;SDS011;54456;48.436;10.028;2023-02-01T06:13:04;12.23;;;4.60;;
67675;SDS011;54456;48.436;10.028;2023-02-01T06:14:34;11.53;;;4.23;;
67675;SDS011;54456;48.436;10.028;2023-02-01T06:16:04;13.33;;;4.73;;
67675;SDS011;54456;48.436;10.028;2023-02-01T06:17:36;9.55;;;3.83;;
67675;SDS011;54456;48.436;10.028;2023-02-01T06:19:07;13.32;;;4.20;;
67675;SDS011;54456;48.436;10.028;2023-02-01T06:20:38;9.10;;;3.10;;
67675;SDS011;54456;48.436;10.028;2023-02-01T06:22:09;12.32;;;3.75;;
67675;SDS011;54456;48.436;10.028;2023-02-01T06:23:39;12.40;;;4.83;;
67675;SDS011;54456;48.436;10.028;2023-02-01T06:25:09;7.30;;;3.28;;
67675;SDS011;54456;48.436;10.028;2023-02-01T06:26:40;12.50;;;4.63;;
67675;SDS011;54456;48.436;10.028;2023-02-01T06:28:10;9.40;;;3.60;;
67675;SDS011;54456;48.436;10.028;2023-02-01T06:29:40;12.97;;;3.33;;
67675;SDS011;54456;48.436;10.028;2023-02-01T06:31:11;14.07;;;5.27;;
67675;SDS011;54456;48.436;10.028;2023-02-01T06:32:41;15.85;;;4.50;;
67675;SDS011;54456;48.436;10.028;2023-02-01T06:34:12;14.83;;;4.60;;
67675;SDS011;54456;48.436;10.028;2023-02-01T06:35:42;12.53;;;4.43;;
67675;SDS011;54456;48.436;10.028;2023-02-01T06:37:17;10.57;;;3.75;;
67675;SDS011;54456;48.436;10.028;2023-02-01T06:38:47;11.63;;;4.17;;
67675;SDS011;54456;48.436;10.028;2023-02-01T06:40:17;13.65;;;4.93;;
67675;SDS011;54456;48.436;10.028;2023-02-01T06:41:48;10.10;;;3.60;;
67675;SDS011;54456;48.436;10.028;2023-02-01T06:43:18;12.40;;;4.28;;
67675;SDS011;54456;48.436;10.028;2023-02-01T06:44:48;13.03;;;4.87;;
67675;SDS011;54456;48.436;10.028;2023-02-01T06:46:19;15.53;;;3.93;;
67675;SDS011;54456;48.436;10.028;2023-02-01T06:47:49;14.47;;;6.03;;
67675;SDS011;54456;48.436;10.028;2023-02-01T06:49:19;14.40;;;4.67;;
67675;SDS011;54456;48.436;10.028;2023-02-01T06:50:49;11.70;;;4.57;;
67675;SDS011;54456;48.436;10.028;2023-02-01T06:52:20;12.10;;;4.27;;
67675;SDS011;54456;48.436;10.028;2023-02-01T06:53:50;10.13;;;3.67;;
67675;SDS011;54456;48.436;10.028;2023-02-01T06:55:20;10.20;;;3.30;;
67675;SDS011;54456;48.436;10.028;2023-02-01T06:56:50;9.83;;;3.57;;
67675;SDS011;54456;48.436;10.028;2023-02-01T06:58:21;13.77;;;3.90;;
67675;SDS011;54456;48.436;10.028;2023-02-01T06:59:51;10.60;;;3.10;;
67675;SDS011;54456;48.436;10.028;2023-02-01T07:01:21;11.53;;;3.63;;
67675;SDS011;54456;48.436;10.028;2023-02-01T07:02:51;7.93;;;3.13;;
67675;SDS011;54456;48.436;10.028;2023-02-01T07:04:22;8.90;;;3.13;;
67675;SDS011;54456;48.436;10.028;2023-02-01T07:05:55;12.13;;;4.40;;
67675;SDS011;54456;48.436;10.028;2023-02-01T07:07:25;7.35;;;2.50;;
67675;SDS011;54456;48.436;10.028;2023-02-01T07:08:55;8.80;;;2.70;;
67675;SDS011;54456;48.436;10.028;2023-02-01T07:10:26;11.65;;;4.13;;
67675;SDS011;54456;48.436;10.028;2023-02-01T07:11:57;5.83;;;1.87;;
67675;SDS011;54456;48.436;10.028;2023-02-01T07:13:27;10.57;;;2.97;;
67675;SDS011;54456;48.436;10.028;2023-02-01T07:14:57;11.63;;;4.00;;
67675;SDS011;54456;48.436;10.028;2023-02-01T07:16:27;7.33;;;2.97;;
67675;SDS011;54456;48.436;10.028;2023-02-01T07:17:58;9.38;;;3.38;;
67675;SDS011;54456;48.436;10.028;2023-02-01T07:19:29;8.50;;;3.33;;
67675;SDS011;54456;48.436;10.028;2023-02-01T07:20:59;8.30;;;2.90;;
67675;SDS011;54456;48.436;10.028;2023-02-01T07:22:29;8.25;;;2.90;;
67675;SDS011;54456;48.436;10.028;2023-02-01T07:24:00;10.10;;;3.53;;
67675;SDS011;54456;48.436;10.028;2023-02-01T07:25:30;7.93;;;2.87;;
67675;SDS011;54456;48.436;10.028;2023-02-01T07:27:00;8.50;;;3.43;;
67675;SDS011;54456;48.436;10.028;2023-02-01T07:28:31;6.83;;;2.67;;
67675;SDS011;54456;48.436;10.028;2023-02-01T07:30:02;8.15;;;2.60;;
67675;SDS011;54456;48.436;10.028;2023-02-01T07:31:32;4.10;;;1.83;;
67675;SDS011;54456;48.436;10.028;2023-02-01T07:33:02;6.57;;;2.23;;
67675;SDS011;54456;48.436;10.028;2023-02-01T07:34:33;8.53;;;3.07;;
67675;SDS011;54456;48.436;10.028;2023-02-01T07:36:04;7.68;;;2.67;;
67675;SDS011;54456;48.436;10.028;2023-02-01T07:37:35;6.93;;;2.10;;
67675;SDS011;54456;48.436;10.028;2023-02-01T07:39:05;8.63;;;3.07;;
67675;SDS011;54456;48.436;10.028;2023-02-01T07:40:35;6.87;;;2.13;;
67675;SDS011;54456;48.436;10.028;2023-02-01T07:42:05;8.73;;;2.77;;
67675;SDS011;54456;48.436;10.028;2023-02-01T07:43:36;8.50;;;2.78;;
67675;SDS011;54456;48.436;10.028;2023-02-01T07:45:06;7.17;;;2.50;;
67675;SDS011;54456;48.436;10.028;2023-02-01T07:46:37;7.30;;;2.65;;
67675;SDS011;54456;48.436;10.028;2023-02-01T07:48:09;6.18;;;2.30;;
67675;SDS011;54456;48.436;10.028;2023-02-01T07:49:39;6.57;;;2.37;;
67675;SDS011;54456;48.436;10.028;2023-02-01T07:51:10;8.30;;;2.70;;
67675;SDS011;54456;48.436;10.028;2023-02-01T07:52:41;6.93;;;2.35;;
67675;SDS011;54456;48.436;10.028;2023-02-01T07:54:11;6.45;;;2.50;;
67675;SDS011;54456;48.436;10.028;2023-02-01T07:55:42;5.43;;;1.77;;
67675;SDS011;54456;48.436;10.028;2023-02-01T07:57:12;8.60;;;2.50;;
67675;SDS011;54456;48.436;10.028;2023-02-01T07:58:43;6.32;;;2.15;;
67675;SDS011;54456;48.436;10.028;2023-02-01T08:00:13;7.37;;;2.43;;
67675;SDS011;54456;48.436;10.028;2023-02-01T08:02:02;7.20;;;2.38;;
67675;SDS011;54456;48.436;10.028;2023-02-01T08:03:32;7.90;;;2.63;;
67675;SDS011;54456;48.436;10.028;2023-02-01T08:05:03;8.47;;;2.63;;
67675;SDS011;54456;48.436;10.028;2023-02-01T08:06:34;6.00;;;2.38;;
67675;SDS011;54456;48.436;10.028;2023-02-01T08:08:05;7.70;;;2.73;;
67675;SDS011;54456;48.436;10.028;2023-02-01T08:09:36;7.97;;;2.50;;
67675;SDS011;54456;48.436;10.028;2023-02-01T08:11:06;6.00;;;1.73;;
67675;SDS011;54456;48.436;10.028;2023-02-01T08:12:37;4.88;;;1.75;;
67675;SDS011;54456;48.436;10.028;2023-02-01T08:14:07;6.53;;;2.28;;
67675;SDS011;54456;48.436;10.028;2023-02-01T08:15:37;8.07;;;2.77;;
67675;SDS011;54456;48.436;10.028;2023-02-01T08:17:08;10.10;;;2.67;;
67675;SDS011;54456;48.436;10.028;2023-02-01T08:18:38;5.40;;;1.83;;
67675;SDS011;54456;48.436;10.028;2023-02-01T08:20:08;6.07;;;2.03;;
67675;SDS011;54456;48.436;10.028;2023-02-01T08:21:39;7.88;;;2.75;;
67675;SDS011;54456;48.436;10.028;2023-02-01T08:23:09;6.73;;;2.07;;
67675;SDS011;54456;48.436;10.028;2023-02-01T08:24:39;6.13;;;2.37;;
67675;SDS011;54456;48.436;10.028;2023-02-01T08:26:12;7.63;;;2.63;;
67675;SDS011;54456;48.436;10.028;2023-02-01T08:27:44;8.05;;;2.63;;
67675;SDS011;54456;48.436;10.028;2023-02-01T08:29:15;9.18;;;2.85;;
67675;SDS011;54456;48.436;10.028;2023-02-01T08:30:45;7.97;;;2.07;;
67675;SDS011;54456;48.436;10.028;2023-02-01T08:32:15;6.17;;;2.13;;
67675;SDS011;54456;48.436;10.028;2023-02-01T08:33:48;5.30;;;2.40;;
67675;SDS011;54456;48.436;10.028;2023-02-01T08:35:19;8.00;;;2.90;;
67675;SDS011;54456;48.436;10.028;2023-02-01T08:36:49;7.67;;;2.70;;
67675;SDS011;54456;48.436;10.028;2023-02-01T08:38:21;5.40;;;1.88;;
67675;SDS011;54456;48.436;10.028;2023-02-01T08:39:52;7.80;;;2.60;;
67675;SDS011;54456;48.436;10.028;2023-02-01T08:41:23;5.27;;;2.10;;
67675;SDS011;54456;48.436;10.028;2023-02-01T08:42:54;7.10;;;2.47;;
67675;SDS011;54456;48.436;10.028;2023-02-01T08:44:24;7.10;;;2.33;;
67675;SDS011;54456;48.436;10.028;2023-02-01T08:45:54;9.93;;;3.00;;
67675;SDS011;54456;48.436;10.028;2023-02-01T08:47:25;9.38;;;3.90;;
67675;SDS011;54456;48.436;10.028;2023-02-01T08:48:56;6.90;;;2.53;;
67675;SDS011;54456;48.436;10.028;2023-02-01T08:50:26;9.83;;;3.30;;
67675;SDS011;54456;48.436;10.028;2023-02-01T08:51:56;8.03;;;2.50;;
67675;SDS011;54456;48.436;10.028;2023-02-01T08:53:26;8.30;;;3.40;;
67675;SDS011;54456;48.436;10.028;2023-02-01T08:54:57;7.80;;;2.35;;
67675;SDS011;54456;48.436;10.028;2023-02-01T08:56:27;7.57;;;2.83;;
67675;SDS011;54456;48.436;10.028;2023-02-01T08:57:57;7.57;;;2.33;;
67675;SDS011;54456;48.436;10.028;2023-02-01T08:59:27;7.90;;;2.73;;
67675;SDS011;54456;48.436;10.028;2023-02-01T09:01:02;9.97;;;2.97;;
67675;SDS011;54456;48.436;10.028;2023-02-01T09:02:32;7.35;;;2.72;;
67675;SDS011;54456;48.436;10.028;2023-02-01T09:04:03;8.50;;;2.80;;
67675;SDS011;54456;48.436;10.028;2023-02-01T09:05:33;7.40;;;2.60;;
67675;SDS011;54456;48.436;10.028;2023-02-01T09:07:03;7.67;;;2.73;;
67675;SDS011;54456;48.436;10.028;2023-02-01T09:08:34;8.47;;;3.13;;
67675;SDS011;54456;48.436;10.028;2023-02-01T09:10:04;8.27;;;3.60;;
67675;SDS011;54456;48.436;10.028;2023-02-01T09:11:35;9.05;;;3.10;;
67675;SDS011;54456;48.436;10.028;2023-02-01T09:13:05;8.80;;;2.73;;
67675;SDS011;54456;48.436;10.028;2023-02-01T09:14:35;9.10;;;3.17;;
67675;SDS011;54456;48.436;10.028;2023-02-01T09:16:06;8.43;;;2.83;;
67675;SDS011;54456;48.436;10.028;2023-02-01T09:17:36;9.00;;;3.30;;
67675;SDS011;54456;48.436;10.028;2023-02-01T09:19:06;7.60;;;2.35;;
67675;SDS011;54456;48.436;10.028;2023-02-01T09:20:37;7.53;;;2.67;;
67675;SDS011;54456;48.436;10.028;2023-02-01T09:22:09;9.25;;;3.15;;
67675;SDS011;54456;48.436;10.028;2023-02-01T09:23:39;7.43;;;2.78;;
67675;SDS011;54456;48.436;10.028;2023-02-01T09:25:10;9.27;;;3.13;;
67675;SDS011;54456;48.436;10.028;2023-02-01T09:26:40;11.90;;;4.32;;
67675;SDS011;54456;48.436;10.028;2023-02-01T09:28:10;6.90;;;2.53;;
67675;SDS011;54456;48.436;10.028;2023-02-01T09:29:40;6.20;;;2.20;;
67675;SDS011;54456;48.436;10.028;2023-02-01T09:31:11;7.83;;;3.10;;
67675;SDS011;54456;48.436;10.028;2023-02-01T09:32:41;10.37;;;4.17;;
67675;SDS011;54456;48.436;10.028;2023-02-01T09:34:11;9.13;;;3.43;;
67675;SDS011;54456;48.436;10.028;2023-02-01T09:35:41;11.13;;;3.33;;
67675;SDS011;54456;48.436;10.028;2023-02-01T09:37:12;10.07;;;3.40;;
67675;SDS011;54456;48.436;10.028;2023-02-01T09:38:42;9.23;;;3.77;;
67675;SDS011;54456;48.436;10.028;2023-02-01T09:40:14;9.27;;;3.33;;
67675;SDS011;54456;48.436;10.028;2023-02-01T09:43:40;9.35;;;3.80;;
67675;SDS011;54456;48.436;10.028;2023-02-01T09:46:48;8.05;;;3.30;;
67675;SDS011;54456;48.436;10.028;2023-02-01T09:48:19;10.90;;;4.00;;
67675;SDS011;54456;48.436;10.028;2023-02-01T09:51:27;8.88;;;3.90;;
67675;SDS011;54456;48.436;10.028;2023-02-01T09:53:04;8.93;;;2.78;;
67675;SDS011;54456;48.436;10.028;2023-02-01T09:56:20;10.15;;;3.30;;
67675;SDS011;54456;48.436;10.028;2023-02-01T10:01:03;9.68;;;3.17;;
67675;SDS011;54456;48.436;10.028;2023-02-01T10:02:34;10.10;;;2.97;;
67675;SDS011;54456;48.436;10.028;2023-02-01T10:04:08;8.40;;;3.08;;
67675;SDS011;54456;48.436;10.028;2023-02-01T10:07:32;8.25;;;3.15;;
67675;SDS011;54456;48.436;10.028;2023-02-01T10:10:46;8.38;;;2.95;;
67675;SDS011;54456;48.436;10.028;2023-02-01T10:14:11;9.05;;;3.40;;
67675;SDS011;54456;48.436;10.028;2023-02-01T10:24:39;7.95;;;2.75;;
67675;SDS011;54456;48.436;10.028;2023-02-01T10:27:41;8.57;;;3.80;;
67675;SDS011;54456;48.436;10.028;2023-02-01T10:29:15;9.07;;;2.63;;
67675;SDS011;54456;48.436;10.028;2023-02-01T10:30:47;8.80;;;2.85;;
67675;SDS011;54456;48.436;10.028;2023-02-01T10:32:21;10.82;;;3.45;;
67675;SDS011;54456;48.436;10.028;2023-02-01T10:33:55;6.15;;;2.42;;
67675;SDS011;54456;48.436;10.028;2023-02-01T10:35:30;9.25;;;3.55;;
67675;SDS011;54456;48.436;10.028;2023-02-01T10:37:07;10.43;;;3.95;;
67675;SDS011;54456;48.436;10.028;2023-02-01T10:38:40;9.18;;;3.10;;
67675;SDS011;54456;48.436;10.028;2023-02-01T10:40:15;8.23;;;3.10;;
67675;SDS011;54456;48.436;10.028;2023-02-01T10:41:46;6.93;;;2.28;;
67675;SDS011;54456;48.436;10.028;2023-02-01T10:43:17;10.25;;;3.25;;
67675;SDS011;54456;48.436;10.028;2023-02-01T10:44:47;10.83;;;4.20;;
67675;SDS011;54456;48.436;10.028;2023-02-01T10:46:18;10.00;;;3.42;;
67675;SDS011;54456;48.436;10.028;2023-02-01T10:47:49;8.27;;;3.00;;
67675;SDS011;54456;48.436;10.028;2023-02-01T10:49:32;12.00;;;3.30;;
67675;SDS011;54456;48.436;10.028;2023-02-01T10:51:10;12.95;;;3.13;;
67675;SDS011;54456;48.436;10.028;2023-02-01T10:52:46;10.05;;;3.05;;
67675;SDS011;54456;48.436;10.028;2023-02-01T10:54:23;9.43;;;3.03;;
67675;SDS011;54456;48.436;10.028;2023-02-01T10:56:07;9.45;;;3.17;;
67675;SDS011;54456;48.436;10.028;2023-02-01T10:57:37;11.38;;;3.08;;
67675;SDS011;54456;48.436;10.028;2023-02-01T10:59:13;7.37;;;3.00;;
67675;SDS011;54456;48.436;10.028;2023-02-01T11:00:48;8.73;;;3.28;;
67675;SDS011;54456;48.436;10.028;2023-02-01T11:02:31;8.25;;;3.05;;
67675;SDS011;54456;48.436;10.028;2023-02-01T11:04:03;9.75;;;2.83;;
67675;SDS011;54456;48.436;10.028;2023-02-01T11:05:42;8.30;;;2.70;;
67675;SDS011;54456;48.436;10.028;2023-02-01T11:08:47;8.13;;;2.93;;
67675;SDS011;54456;48.436;10.028;2023-02-01T11:10:40;9.43;;;3.40;;
67675;SDS011;54456;48.436;10.028;2023-02-01T11:12:25;5.60;;;1.95;;
67675;SDS011;54456;48.436;10.028;2023-02-01T11:13:58;8.50;;;2.00;;
67675;SDS011;54456;48.436;10.028;2023-02-01T11:15:28;9.57;;;3.80;;
67675;SDS011;54456;48.436;10.028;2023-02-01T11:17:00;8.83;;;3.43;;
67675;SDS011;54456;48.436;10.028;2023-02-01T11:18:31;8.30;;;3.03;;
67675;SDS011;54456;48.436;10.028;2023-02-01T11:21:44;11.25;;;2.33;;
67675;SDS011;54456;48.436;10.028;2023-02-01T11:23:15;8.02;;;2.03;;
67675;SDS011;54456;48.436;10.028;2023-02-01T11:24:46;6.13;;;1.83;;
67675;SDS011;54456;48.436;10.028;2023-02-01T11:27:50;7.10;;;2.00;;
67675;SDS011;54456;48.436;10.028;2023-02-01T11:29:21;8.50;;;1.90;;
67675;SDS011;54456;48.436;10.028;2023-02-01T11:31:02;8.38;;;2.10;;
67675;SDS011;54456;48.436;10.028;2023-02-01T11:32:33;10.10;;;2.95;;
67675;SDS011;54456;48.436;10.028;2023-02-01T11:34:14;8.37;;;1.90;;
67675;SDS011;54456;48.436;10.028;2023-02-01T11:35:45;9.05;;;3.38;;
67675;SDS011;54456;48.436;10.028;2023-02-01T11:38:52;5.90;;;1.80;;
67675;SDS011;54456;48.436;10.028;2023-02-01T11:40:25;6.63;;;1.85;;
67675;SDS011;54456;48.436;10.028;2023-02-01T11:43:29;9.43;;;2.10;;
67675;SDS011;54456;48.436;10.028;2023-02-01T11:45:20;6.93;;;1.33;;
67675;SDS011;54456;48.436;10.028;2023-02-01T11:46:50;8.52;;;2.10;;
67675;SDS011;54456;48.436;10.028;2023-02-01T11:48:21;8.73;;;1.67;;
67675;SDS011;54456;48.436;10.028;2023-02-01T11:49:57;9.50;;;1.90;;
67675;SDS011;54456;48.436;10.028;2023-02-01T11:51:40;7.45;;;1.83;;
67675;SDS011;54456;48.436;10.028;2023-02-01T11:55:05;4.05;;;1.00;;
67675;SDS011;54456;48.436;10.028;2023-02-01T11:56:45;7.30;;;2.00;;
67675;SDS011;54456;48.436;10.028;2023-02-01T11:58:27;8.43;;;2.05;;
67675;SDS011;54456;48.436;10.028;2023-02-01T12:05:14;10.32;;;2.42;;
67675;SDS011;54456;48.436;10.028;2023-02-01T12:06:54;7.18;;;1.90;;
67675;SDS011;54456;48.436;10.028;2023-02-01T12:10:01;6.50;;;1.77;;
67675;SDS011;54456;48.436;10.028;2023-02-01T12:15:22;8.50;;;1.85;;
67675;SDS011;54456;48.436;10.028;2023-02-01T12:18:56;7.88;;;1.63;;
67675;SDS011;54456;48.436;10.028;2023-02-01T12:25:21;7.90;;;2.03;;
67675;SDS011;54456;48.436;10.028;2023-02-01T12:26:59;8.80;;;2.05;;
67675;SDS011;54456;48.436;10.028;2023-02-01T12:30:28;11.93;;;2.72;;
67675;SDS011;54456;48.436;10.028;2023-02-01T12:38:30;7.97;;;1.80;;
67675;SDS011;54456;48.436;10.028;2023-02-01T12:43:05;7.33;;;1.83;;
67675;SDS011;54456;48.436;10.028;2023-02-01T12:44:43;4.45;;;1.60;;
67675;SDS011;54456;48.436;10.028;2023-02-01T12:46:23;7.97;;;1.80;;
67675;SDS011;54456;48.436;10.028;2023-02-01T12:51:17;5.27;;;1.57;;
67675;SDS011;54456;48.436;10.028;2023-02-01T12:52:49;10.05;;;2.08;;
67675;SDS011;54456;48.436;10.028;2023-02-01T12:54:22;10.10;;;1.55;;
67675;SDS011;54456;48.436;10.028;2023-02-01T12:55:55;7.07;;;1.77;;
67675;SDS011;54456;48.436;10.028;2023-02-01T12:57:30;6.70;;;1.90;;
67675;SDS011;54456;48.436;10.028;2023-02-01T12:59:03;9.05;;;2.03;;
67675;SDS011;54456;48.436;10.028;2023-02-01T13:00:41;5.15;;;1.50;;
67675;SDS011;54456;48.436;10.028;2023-02-01T13:04:04;5.35;;;1.40;;
67675;SDS011;54456;48.436;10.028;2023-02-01T13:05:43;6.95;;;1.90;;
67675;SDS011;54456;48.436;10.028;2023-02-01T13:07:16;6.22;;;2.10;;
67675;SDS011;54456;48.436;10.028;2023-02-01T13:09:00;5.50;;;1.85;;
67675;SDS011;54456;48.436;10.028;2023-02-01T13:12:13;7.77;;;1.57;;
67675;SDS011;54456;48.436;10.028;2023-02-01T13:13:52;5.65;;;1.70;;
67675;SDS011;54456;48.436;10.028;2023-02-01T13:15:32;6.25;;;1.85;;
67675;SDS011;54456;48.436;10.028;2023-02-01T13:17:05;7.05;;;2.03;;
67675;SDS011;54456;48.436;10.028;2023-02-01T13:18:37;5.43;;;1.73;;
67675;SDS011;54456;48.436;10.028;2023-02-01T13:21:55;8.57;;;1.77;;
67675;SDS011;54456;48.436;10.028;2023-02-01T13:23:27;7.45;;;1.80;;
67675;SDS011;54456;48.436;10.028;2023-02-01T13:25:03;9.73;;;1.95;;
67675;SDS011;54456;48.436;10.028;2023-02-01T13:26:34;3.13;;;1.52;;
67675;SDS011;54456;48.436;10.028;2023-02-01T13:28:15;6.43;;;2.00;;
67675;SDS011;54456;48.436;10.028;2023-02-01T13:29:55;8.75;;;1.70;;
67675;SDS011;54456;48.436;10.028;2023-02-01T13:31:34;4.40;;;1.40;;
67675;SDS011;54456;48.436;10.028;2023-02-01T13:41:41;6.70;;;1.88;;
67675;SDS011;54456;48.436;10.028;2023-02-01T13:43:19;8.45;;;1.90;;
67675;SDS011;54456;48.436;10.028;2023-02-01T13:44:58;6.85;;;1.65;;
67675;SDS011;54456;48.436;10.028;2023-02-01T13:46:30;6.90;;;1.50;;
67675;SDS011;54456;48.436;10.028;2023-02-01T13:48:03;6.68;;;1.73;;
67675;SDS011;54456;48.436;10.028;2023-02-01T13:49:37;11.05;;;2.10;;
67675;SDS011;54456;48.436;10.028;2023-02-01T13:51:08;6.50;;;1.58;;
67675;SDS011;54456;48.436;10.028;2023-02-01T13:54:29;8.77;;;1.50;;
67675;SDS011;54456;48.436;10.028;2023-02-01T13:56:01;7.63;;;1.42;;
67675;SDS011;54456;48.436;10.028;2023-02-01T13:57:37;8.23;;;2.22;;
67675;SDS011;54456;48.436;10.028;2023-02-01T14:02:47;4.57;;;1.60;;
67675;SDS011;54456;48.436;10.028;2023-02-01T14:05:00;8.38;;;1.60;;
67675;SDS011;54456;48.436;10.028;2023-02-01T14:06:16;6.38;;;1.70;;
67675;SDS011;54456;48.436;10.028;2023-02-01T14:09:35;9.60;;;1.90;;
67675;SDS011;54456;48.436;10.028;2023-02-01T14:11:07;5.28;;;1.67;;
67675;SDS011;54456;48.436;10.028;2023-02-01T14:13:03;7.70;;;1.45;;
67675;SDS011;54456;48.436;10.028;2023-02-01T14:17:34;3.77;;;1.43;;
67675;SDS011;54456;48.436;10.028;2023-02-01T14:19:07;8.15;;;1.80;;
67675;SDS011;54456;48.436;10.028;2023-02-01T14:20:42;7.90;;;1.70;;